createdAt,value
2022-08-20T00:00:50.236Z,100841.30
2022-08-20T00:03:50.266Z,100842.88
2022-08-20T00:06:45.371Z,100848.63
2022-08-20T00:09:37.024Z,100849.63
2022-08-20T00:12:28.587Z,100852.70
2022-08-20T00:15:22.949Z,100852.34
2022-08-20T00:18:14.905Z,100857.52
2022-08-20T00:21:08.764Z,100854.46
2022-08-20T00:24:00.591Z,100856.36
2022-08-20T00:26:52.612Z,100852.45
2022-08-20T00:29:43.724Z,100851.54
2022-08-20T00:32:43.374Z,100854.52
2022-08-20T00:35:37.826Z,100857.56
2022-08-20T00:38:30.102Z,100854.06
2022-08-20T00:41:24.239Z,100854.02
2022-08-20T00:44:17.343Z,100851.36
2022-08-20T00:47:09.333Z,100849.52
2022-08-20T00:50:00.025Z,100853.59
2022-08-20T00:52:54.435Z,100858.02
2022-08-20T00:55:45.013Z,100857.20
2022-08-20T00:58:37.509Z,100855.43
2022-08-20T01:01:48.174Z,100857.70
2022-08-20T01:04:48.496Z,100864.01
2022-08-20T01:07:40.666Z,100863.03
2022-08-20T01:10:35.346Z,100858.88
2022-08-20T01:13:27.298Z,100857.23
2022-08-20T01:16:29.598Z,100852.22
2022-08-20T01:19:29.468Z,100849.85
2022-08-20T01:22:58.367Z,100845.92
2022-08-20T01:25:53.074Z,100851.28
2022-08-20T01:28:49.298Z,100853.11
2022-08-20T01:31:42.336Z,100853.00
2022-08-20T01:34:33.551Z,100856.83
2022-08-20T01:37:25.488Z,100859.13
2022-08-20T01:40:35.109Z,100862.64
2022-08-20T01:43:26.972Z,100868.00
2022-08-20T01:46:18.271Z,100867.93
2022-08-20T01:49:23.137Z,100865.77
2022-08-20T01:52:32.819Z,100867.33
2022-08-20T01:55:23.079Z,100864.60
2022-08-20T01:58:16.712Z,100863.95
2022-08-20T02:01:09.517Z,100868.30
2022-08-20T02:04:03.267Z,100865.27
2022-08-20T02:06:57.848Z,100866.88
2022-08-20T02:09:49.652Z,100864.63
2022-08-20T02:12:40.244Z,100858.86
2022-08-20T02:15:37.336Z,100860.73
2022-08-20T02:18:29.255Z,100863.95
2022-08-20T02:21:19.861Z,100863.86
2022-08-20T02:24:11.116Z,100868.88
2022-08-20T02:27:02.878Z,100867.65
2022-08-20T02:29:54.491Z,100861.91
2022-08-20T02:32:45.519Z,100858.79
2022-08-20T02:35:35.642Z,100857.92
2022-08-20T02:38:26.775Z,100861.72
2022-08-20T02:41:18.024Z,100861.61
2022-08-20T02:44:09.800Z,100855.09
2022-08-20T02:47:03.139Z,100845.38
2022-08-20T02:49:59.781Z,100841.27
2022-08-20T02:52:52.360Z,100845.59
2022-08-20T02:55:43.270Z,100850.27
2022-08-20T02:58:35.515Z,100854.52
2022-08-20T03:01:28.910Z,100854.39
2022-08-20T03:04:20.120Z,100850.70
2022-08-20T03:07:15.399Z,100847.29
2022-08-20T03:10:06.254Z,100843.99
2022-08-20T03:12:57.481Z,100844.86
2022-08-20T03:15:57.923Z,100845.96
2022-08-20T03:18:52.136Z,100844.40
2022-08-20T03:21:43.659Z,100838.77
2022-08-20T03:24:36.971Z,100833.89
2022-08-20T03:27:29.989Z,100833.23
2022-08-20T03:30:29.399Z,100828.91
2022-08-20T03:33:21.735Z,100825.75
2022-08-20T03:36:12.691Z,100819.98
2022-08-20T03:39:13.456Z,100822.21
2022-08-20T03:42:03.947Z,100820.13
2022-08-20T03:44:58.921Z,100823.00
2022-08-20T03:47:51.884Z,100825.42
2022-08-20T03:50:44.396Z,100826.77
2022-08-20T03:53:35.981Z,100827.64
2022-08-20T03:56:27.509Z,100832.73
2022-08-20T03:59:18.162Z,100828.77
2022-08-20T04:02:11.622Z,100833.98
2022-08-20T04:05:02.272Z,100837.80
2022-08-20T04:07:52.524Z,100839.31
2022-08-20T04:10:45.634Z,100839.28
2022-08-20T04:13:38.994Z,100840.02
2022-08-20T04:16:33.473Z,100836.52
2022-08-20T04:19:23.703Z,100833.98
2022-08-20T04:22:15.190Z,100833.78
2022-08-20T04:25:06.368Z,100837.64
2022-08-20T04:27:58.794Z,100836.79
2022-08-20T04:30:51.985Z,100837.86
2022-08-20T04:33:44.157Z,100831.16
2022-08-20T04:36:35.234Z,100828.94
2022-08-20T04:39:25.732Z,100830.29
2022-08-20T04:42:15.755Z,100831.11
2022-08-20T04:45:08.677Z,100833.05
2022-08-20T04:48:00.094Z,100840.64
2022-08-20T04:50:52.609Z,100846.20
2022-08-20T04:53:43.484Z,100843.56
2022-08-20T04:56:43.169Z,100847.88
2022-08-20T04:59:33.035Z,100845.54
2022-08-20T05:02:24.893Z,100852.11
2022-08-20T05:05:17.782Z,100849.92
2022-08-20T05:08:18.769Z,100853.42
2022-08-20T05:11:34.052Z,100852.55
2022-08-20T05:14:28.026Z,100853.46
2022-08-20T05:17:19.701Z,100853.84
2022-08-20T05:20:13.899Z,100856.19
2022-08-20T05:23:04.424Z,100860.04
2022-08-20T05:25:58.286Z,100865.16
2022-08-20T05:28:57.587Z,100868.04
2022-08-20T05:31:49.118Z,100874.52
2022-08-20T05:34:39.044Z,100878.20
2022-08-20T05:37:30.122Z,100874.70
2022-08-20T05:40:23.884Z,100879.01
2022-08-20T05:43:14.177Z,100879.86
2022-08-20T05:46:05.591Z,100882.23
2022-08-20T05:48:59.471Z,100884.73
2022-08-20T05:51:51.372Z,100884.27
2022-08-20T05:54:42.191Z,100887.90
2022-08-20T05:57:32.499Z,100889.98
2022-08-20T06:00:22.351Z,100890.83
2022-08-20T06:03:30.129Z,100894.22
2022-08-20T06:06:45.689Z,100895.27
2022-08-20T06:09:32.769Z,100896.60
2022-08-20T06:12:23.917Z,100897.09
2022-08-20T06:15:15.237Z,100899.02
2022-08-20T06:18:27.808Z,100898.95
2022-08-20T06:21:24.679Z,100895.75
2022-08-20T06:24:15.155Z,100900.20
2022-08-20T06:27:07.455Z,100899.47
2022-08-20T06:29:58.993Z,100906.45
2022-08-20T06:32:51.374Z,100904.95
2022-08-20T06:35:46.187Z,100907.18
2022-08-20T06:38:38.616Z,100908.14
2022-08-20T06:41:36.020Z,100912.70
2022-08-20T06:44:28.830Z,100915.88
2022-08-20T06:47:21.477Z,100919.23
2022-08-20T06:50:14.656Z,100916.27
2022-08-20T06:53:07.320Z,100916.45
2022-08-20T06:55:59.651Z,100914.30
2022-08-20T06:58:49.759Z,100915.34
2022-08-20T07:01:39.582Z,100912.95
2022-08-20T07:04:29.816Z,100910.08
2022-08-20T07:07:20.966Z,100909.48
2022-08-20T07:10:14.746Z,100906.48
2022-08-20T07:13:06.508Z,100905.38
2022-08-20T07:15:56.582Z,100905.20
2022-08-20T07:18:48.142Z,100904.77
2022-08-20T07:21:39.219Z,100905.09
2022-08-20T07:24:33.324Z,100907.69
2022-08-20T07:27:25.584Z,100906.62
2022-08-20T07:30:55.801Z,100907.23
2022-08-20T07:33:47.462Z,100903.05
2022-08-20T07:36:41.502Z,100906.58
2022-08-20T07:39:32.452Z,100909.27
2022-08-20T07:42:23.019Z,100909.86
2022-08-20T07:45:18.832Z,100909.63
2022-08-20T07:48:27.896Z,100912.59
2022-08-20T07:51:25.092Z,100916.88
2022-08-20T07:54:15.165Z,100918.84
2022-08-20T07:57:05.679Z,100920.00
2022-08-20T08:00:00.397Z,100922.01
2022-08-20T08:02:51.047Z,100922.54
2022-08-20T08:05:46.774Z,100921.17
2022-08-20T08:08:37.589Z,100922.23
2022-08-20T08:11:29.871Z,100925.84
2022-08-20T08:14:23.571Z,100929.23
2022-08-20T08:17:15.621Z,100927.90
2022-08-20T08:20:07.805Z,100929.50
2022-08-20T08:23:00.797Z,100932.20
2022-08-20T08:25:52.542Z,100933.76
2022-08-20T08:28:47.118Z,100932.02
2022-08-20T08:31:38.261Z,100930.30
2022-08-20T08:34:32.560Z,100937.02
2022-08-20T08:37:30.609Z,100936.76
2022-08-20T08:40:21.442Z,100936.03
2022-08-20T08:43:17.321Z,100930.38
2022-08-20T08:46:14.433Z,100931.77
2022-08-20T08:49:04.414Z,100929.48
2022-08-20T08:52:00.462Z,100928.05
2022-08-20T08:54:53.962Z,100926.42
2022-08-20T08:57:43.781Z,100921.65
2022-08-20T09:00:33.688Z,100915.52
2022-08-20T09:03:39.974Z,100919.70
2022-08-20T09:06:30.815Z,100920.88
2022-08-20T09:09:26.360Z,100923.73
2022-08-20T09:12:20.140Z,100924.55
2022-08-20T09:15:11.085Z,100926.52
2022-08-20T09:18:01.730Z,100927.81
2022-08-20T09:20:52.929Z,100926.80
2022-08-20T09:23:44.065Z,100926.33
2022-08-20T09:26:39.159Z,100926.38
2022-08-20T09:29:29.711Z,100927.34
2022-08-20T09:32:23.652Z,100927.58
2022-08-20T09:35:14.455Z,100931.14
2022-08-20T09:38:04.138Z,100929.67
2022-08-20T09:40:54.329Z,100931.29
2022-08-20T09:43:44.560Z,100934.82
2022-08-20T09:46:34.704Z,100930.10
2022-08-20T09:49:25.131Z,100928.09
2022-08-20T09:52:22.759Z,100931.39
2022-08-20T09:55:21.465Z,100935.05
2022-08-20T09:58:17.550Z,100933.11
2022-08-20T10:01:13.862Z,100941.99
2022-08-20T10:04:05.031Z,100944.77
2022-08-20T10:06:56.101Z,100947.11
2022-08-20T10:09:48.752Z,100945.08
2022-08-20T10:12:41.642Z,100947.50
2022-08-20T10:15:32.901Z,100944.67
2022-08-20T10:18:22.784Z,100944.84
2022-08-20T10:21:14.068Z,100938.03
2022-08-20T10:24:04.201Z,100942.06
2022-08-20T10:26:59.059Z,100936.80
2022-08-20T10:29:49.544Z,100944.11
2022-08-20T10:32:39.611Z,100951.52
2022-08-20T10:35:30.155Z,100952.66
2022-08-20T10:38:21.372Z,100950.35
2022-08-20T10:41:11.994Z,100945.09
2022-08-20T10:44:02.334Z,100944.52
2022-08-20T10:46:56.985Z,100946.31
2022-08-20T10:49:47.486Z,100942.77
2022-08-20T10:52:38.110Z,100939.77
2022-08-20T10:55:29.764Z,100936.55
2022-08-20T10:58:20.183Z,100939.23
2022-08-20T11:01:31.469Z,100940.21
2022-08-20T11:04:25.210Z,100937.80
2022-08-20T11:07:21.518Z,100935.70
2022-08-20T11:10:34.537Z,100934.87
2022-08-20T11:13:25.205Z,100937.17
2022-08-20T11:16:15.616Z,100939.40
2022-08-20T11:19:06.332Z,100938.55
2022-08-20T11:21:59.688Z,100940.05
2022-08-20T11:24:50.334Z,100942.02
2022-08-20T11:27:42.799Z,100941.35
2022-08-20T11:30:35.897Z,100938.80
2022-08-20T11:33:26.661Z,100938.13
2022-08-20T11:36:16.779Z,100939.96
2022-08-20T11:39:08.110Z,100940.95
2022-08-20T11:41:58.203Z,100937.14
2022-08-20T11:44:48.559Z,100933.96
2022-08-20T11:47:39.130Z,100942.80
2022-08-20T11:50:30.336Z,100936.27
2022-08-20T11:53:20.577Z,100936.91
2022-08-20T11:56:16.549Z,100934.44
2022-08-20T11:59:06.748Z,100931.14
2022-08-20T12:02:08.965Z,100924.78
2022-08-20T12:05:01.927Z,100922.27
2022-08-20T12:07:52.888Z,100923.89
2022-08-20T12:10:45.580Z,100924.55
2022-08-20T12:13:47.826Z,100923.34
2022-08-20T12:16:40.012Z,100919.96
2022-08-20T12:19:30.819Z,100919.23
2022-08-20T12:22:25.251Z,100917.13
2022-08-20T12:25:16.158Z,100920.21
2022-08-20T12:28:12.654Z,100917.92
2022-08-20T12:31:03.625Z,100918.04
2022-08-20T12:33:54.102Z,100923.88
2022-08-20T12:36:44.987Z,100923.23
2022-08-20T12:39:36.356Z,100918.47
2022-08-20T12:42:27.258Z,100913.36
2022-08-20T12:45:18.179Z,100919.62
2022-08-20T12:48:13.487Z,100915.20
2022-08-20T12:51:03.605Z,100911.64
2022-08-20T12:53:54.556Z,100906.29
2022-08-20T12:56:48.491Z,100917.91
2022-08-20T12:59:38.669Z,100910.52
2022-08-20T13:02:29.645Z,100908.58
2022-08-20T13:05:20.288Z,100904.21
2022-08-20T13:08:11.986Z,100902.79
2022-08-20T13:11:03.169Z,100910.52
2022-08-20T13:13:56.244Z,100903.23
2022-08-20T13:16:47.214Z,100900.06
2022-08-20T13:19:46.057Z,100893.86
2022-08-20T13:22:36.043Z,100894.02
2022-08-20T13:25:26.446Z,100892.64
2022-08-20T13:28:17.174Z,100895.81
2022-08-20T13:31:12.439Z,100891.54
2022-08-20T13:34:03.655Z,100885.10
2022-08-20T13:36:56.187Z,100884.45
2022-08-20T13:39:47.071Z,100882.64
2022-08-20T13:42:37.411Z,100879.64
2022-08-20T13:45:28.560Z,100879.66
2022-08-20T13:48:18.877Z,100877.91
2022-08-20T13:51:09.578Z,100879.27
2022-08-20T13:53:59.609Z,100873.56
2022-08-20T13:56:50.114Z,100875.36
2022-08-20T13:59:42.751Z,100871.16
2022-08-20T14:02:32.877Z,100871.84
2022-08-20T14:05:23.034Z,100865.52
2022-08-20T14:08:15.033Z,100865.78
2022-08-20T14:11:05.630Z,100859.05
2022-08-20T14:13:58.201Z,100857.86
2022-08-20T14:16:48.362Z,100855.55
2022-08-20T14:19:40.376Z,100848.77
2022-08-20T14:22:30.337Z,100850.48
2022-08-20T14:25:23.374Z,100841.23
2022-08-20T14:28:15.065Z,100841.77
2022-08-20T14:31:08.272Z,100841.59
2022-08-20T14:33:58.313Z,100846.73
2022-08-20T14:36:51.162Z,100844.80
2022-08-20T14:39:45.014Z,100840.87
2022-08-20T14:42:35.592Z,100837.98
2022-08-20T14:45:25.883Z,100835.16
2022-08-20T14:48:16.612Z,100830.70
2022-08-20T14:51:09.839Z,100830.02
2022-08-20T14:54:00.115Z,100820.77
2022-08-20T14:56:52.046Z,100825.64
2022-08-20T14:59:42.600Z,100820.20
2022-08-20T15:02:34.200Z,100821.50
2022-08-20T15:05:24.602Z,100813.95
2022-08-20T15:08:15.083Z,100814.16
2022-08-20T15:11:07.649Z,100819.14
2022-08-20T15:13:58.054Z,100812.95
2022-08-20T15:16:48.630Z,100808.33
2022-08-20T15:19:39.027Z,100809.45
2022-08-20T15:22:29.235Z,100809.98
2022-08-20T15:25:23.078Z,100812.34
2022-08-20T15:28:12.916Z,100804.45
2022-08-20T15:31:02.692Z,100806.43
2022-08-20T15:33:54.988Z,100799.85
2022-08-20T15:36:45.294Z,100798.36
2022-08-20T15:39:35.529Z,100797.76
2022-08-20T15:42:25.988Z,100800.33
2022-08-20T15:45:21.834Z,100805.48
2022-08-20T15:48:16.733Z,100799.24
2022-08-20T15:51:28.760Z,100798.47
2022-08-20T15:54:24.271Z,100805.81
2022-08-20T15:57:27.529Z,100799.20
2022-08-20T16:00:20.093Z,100806.33
2022-08-20T16:03:33.425Z,100805.77
2022-08-20T16:06:29.279Z,100804.73
2022-08-20T16:09:39.503Z,100802.80
2022-08-20T16:12:38.163Z,100806.05
2022-08-20T16:15:31.341Z,100803.05
2022-08-20T16:18:25.771Z,100803.65
2022-08-20T16:21:20.387Z,100802.02
2022-08-20T16:24:13.921Z,100799.34
2022-08-20T16:27:16.034Z,100801.25
2022-08-20T16:30:11.922Z,100799.30
2022-08-20T16:33:07.486Z,100805.34
2022-08-20T16:36:02.950Z,100805.44
2022-08-20T16:38:59.646Z,100808.80
2022-08-20T16:41:53.141Z,100808.34
2022-08-20T16:44:48.666Z,100809.36
2022-08-20T16:47:41.409Z,100801.27
2022-08-20T16:50:35.469Z,100800.73
2022-08-20T16:53:27.809Z,100800.71
2022-08-20T16:56:31.537Z,100803.48
2022-08-20T16:59:26.591Z,100808.29
2022-08-20T17:02:22.578Z,100809.15
2022-08-20T17:05:13.157Z,100811.21
2022-08-20T17:08:07.170Z,100809.48
2022-08-20T17:11:01.825Z,100810.11
2022-08-20T17:14:02.594Z,100806.31
2022-08-20T17:16:55.377Z,100801.93
2022-08-20T17:19:55.974Z,100796.93
2022-08-20T17:22:50.630Z,100802.26
2022-08-20T17:25:41.766Z,100797.61
2022-08-20T17:28:35.462Z,100799.35
2022-08-20T17:31:38.797Z,100802.06
2022-08-20T17:34:32.729Z,100803.47
2022-08-20T17:37:26.269Z,100808.52
2022-08-20T17:40:19.755Z,100806.36
2022-08-20T17:43:11.475Z,100806.02
2022-08-20T17:46:04.398Z,100810.04
2022-08-20T17:48:58.544Z,100812.68
2022-08-20T17:51:51.229Z,100809.40
2022-08-20T17:54:45.432Z,100806.89
2022-08-20T17:57:40.918Z,100812.27
2022-08-20T18:00:31.620Z,100811.44
2022-08-20T18:03:25.789Z,100811.09
2022-08-20T18:06:30.336Z,100813.80
2022-08-20T18:09:29.603Z,100810.27
2022-08-20T18:12:34.298Z,100816.03
2022-08-20T18:15:28.599Z,100814.42
2022-08-20T18:18:30.301Z,100818.08
2022-08-20T18:21:43.334Z,100816.05
2022-08-20T18:24:42.507Z,100823.19
2022-08-20T18:27:39.556Z,100825.15
2022-08-20T18:30:29.413Z,100824.54
2022-08-20T18:33:29.902Z,100827.30
2022-08-20T18:36:28.185Z,100831.90
2022-08-20T18:39:28.864Z,100836.35
2022-08-20T18:42:32.085Z,100835.13
2022-08-20T18:45:33.853Z,100832.92
2022-08-20T18:48:26.399Z,100834.30
2022-08-20T18:51:16.437Z,100832.58
2022-08-20T18:54:07.486Z,100834.30
2022-08-20T18:57:08.621Z,100835.26
2022-08-20T19:00:05.366Z,100836.90
2022-08-20T19:03:03.683Z,100842.48
2022-08-20T19:06:18.207Z,100845.11
2022-08-20T19:09:19.813Z,100853.70
2022-08-20T19:12:32.755Z,100851.09
2022-08-20T19:15:25.172Z,100850.02
2022-08-20T19:18:22.929Z,100849.75
2022-08-20T19:21:16.305Z,100848.92
2022-08-20T19:24:09.648Z,100847.97
2022-08-20T19:27:02.757Z,100852.55
2022-08-20T19:29:56.718Z,100857.64
2022-08-20T19:32:54.443Z,100863.36
2022-08-20T19:35:45.633Z,100863.36
2022-08-20T19:38:36.044Z,100870.09
2022-08-20T19:41:31.707Z,100869.77
2022-08-20T19:44:33.489Z,100872.95
2022-08-20T19:47:32.270Z,100872.00
2022-08-20T19:50:30.929Z,100871.40
2022-08-20T19:53:30.534Z,100870.46
2022-08-20T19:56:24.372Z,100866.61
2022-08-20T19:59:22.274Z,100869.48
2022-08-20T20:02:20.621Z,100870.11
2022-08-20T20:05:13.229Z,100872.40
2022-08-20T20:08:06.343Z,100879.80
2022-08-20T20:11:00.510Z,100879.71
2022-08-20T20:13:51.567Z,100882.73
2022-08-20T20:16:43.526Z,100881.16
2022-08-20T20:19:47.864Z,100882.75
2022-08-20T20:22:52.190Z,100888.09
2022-08-20T20:25:45.519Z,100892.34
2022-08-20T20:28:46.895Z,100892.30
2022-08-20T20:31:52.456Z,100893.02
2022-08-20T20:34:55.626Z,100894.13
2022-08-20T20:37:57.678Z,100895.57
2022-08-20T20:41:00.788Z,100897.79
2022-08-20T20:44:02.664Z,100894.56
2022-08-20T20:47:00.416Z,100892.78
2022-08-20T20:49:57.319Z,100893.88
2022-08-20T20:52:56.177Z,100899.48
2022-08-20T20:56:00.290Z,100904.73
2022-08-20T20:58:54.418Z,100900.23
2022-08-20T21:01:49.921Z,100899.00
2022-08-20T21:04:42.800Z,100900.41
2022-08-20T21:07:33.901Z,100898.77
2022-08-20T21:10:30.395Z,100898.72
2022-08-20T21:13:22.506Z,100900.25
2022-08-20T21:16:13.075Z,100901.67
2022-08-20T21:19:05.973Z,100902.15
2022-08-20T21:21:57.057Z,100902.98
2022-08-20T21:24:48.674Z,100900.94
2022-08-20T21:27:53.755Z,100903.80
2022-08-20T21:30:46.143Z,100908.30
2022-08-20T21:33:39.353Z,100908.64
2022-08-20T21:36:29.692Z,100912.12
2022-08-20T21:39:20.053Z,100910.13
2022-08-20T21:42:22.975Z,100912.45
2022-08-20T21:45:20.578Z,100910.16
2022-08-20T21:48:11.740Z,100909.02
2022-08-20T21:51:02.500Z,100912.70
2022-08-20T21:53:52.719Z,100913.23
2022-08-20T21:56:44.313Z,100916.80
2022-08-20T21:59:37.393Z,100920.90
2022-08-20T22:02:28.602Z,100918.66
2022-08-20T22:05:19.342Z,100921.80
2022-08-20T22:08:09.266Z,100923.16
2022-08-20T22:11:00.542Z,100919.06
2022-08-20T22:13:50.728Z,100919.20
2022-08-20T22:16:42.923Z,100920.80
2022-08-20T22:19:35.970Z,100923.18
2022-08-20T22:22:26.268Z,100921.51
2022-08-20T22:25:16.363Z,100923.66
2022-08-20T22:28:06.275Z,100923.75
2022-08-20T22:30:56.279Z,100918.76
2022-08-20T22:33:46.139Z,100920.90
2022-08-20T22:36:36.378Z,100921.65
2022-08-20T22:39:26.893Z,100920.84
2022-08-20T22:42:17.013Z,100922.57
2022-08-20T22:45:11.536Z,100920.06
2022-08-20T22:48:07.792Z,100921.25
2022-08-20T22:50:59.119Z,100920.41
2022-08-20T22:53:50.303Z,100925.45
2022-08-20T22:56:42.848Z,100922.86
2022-08-20T22:59:34.433Z,100921.29
2022-08-20T23:02:36.373Z,100926.42
2022-08-20T23:05:28.706Z,100925.27
2022-08-20T23:08:19.234Z,100921.66
2022-08-20T23:11:09.635Z,100924.81
2022-08-20T23:13:59.880Z,100926.11
2022-08-20T23:16:58.136Z,100926.61
2022-08-20T23:19:51.283Z,100924.67
2022-08-20T23:22:42.274Z,100927.91
2022-08-20T23:25:33.518Z,100928.40
2022-08-20T23:28:26.518Z,100922.97
2022-08-20T23:31:16.946Z,100920.81
2022-08-20T23:34:08.963Z,100919.78
2022-08-20T23:37:01.345Z,100913.30
2022-08-20T23:39:52.167Z,100917.80
2022-08-20T23:42:42.733Z,100921.27
2022-08-20T23:45:33.678Z,100918.89
2022-08-20T23:48:24.916Z,100916.06
2022-08-20T23:51:15.815Z,100916.98
2022-08-20T23:54:06.887Z,100917.52
2022-08-20T23:56:57.645Z,100914.11
2022-08-20T23:59:48.765Z,100916.70
